createdAt,value
2023-05-16T00:02:54.701Z,93.55
2023-05-16T00:13:02.215Z,93.93
2023-05-16T00:23:08.089Z,94.79
2023-05-16T00:33:14.008Z,95.65
2023-05-16T00:43:19.980Z,95.73
2023-05-16T00:53:26.527Z,96.06
2023-05-16T01:03:32.681Z,96.63
2023-05-16T01:13:49.476Z,96.91
2023-05-16T01:24:14.566Z,96.92
2023-05-16T01:34:20.183Z,96.82
2023-05-16T01:44:32.415Z,96.47
2023-05-16T01:54:44.148Z,96.35
2023-05-16T02:04:49.894Z,96.82
2023-05-16T02:14:55.562Z,97.30
2023-05-16T02:25:02.147Z,97.79
2023-05-16T02:35:09.172Z,97.95
2023-05-16T02:45:15.148Z,98.24
2023-05-16T02:55:34.949Z,98.32
2023-05-16T03:05:40.880Z,98.62
2023-05-16T03:15:47.115Z,98.65
2023-05-16T03:25:52.759Z,98.38
2023-05-16T03:35:59.262Z,98.03
2023-05-16T03:46:05.260Z,97.53
2023-05-16T03:56:10.960Z,96.99
2023-05-16T04:06:16.635Z,96.07
2023-05-16T04:16:22.551Z,95.93
2023-05-16T04:26:28.126Z,85.74
2023-05-16T04:36:35.592Z,76.11
2023-05-16T04:46:41.663Z,72.82
2023-05-16T04:56:47.584Z,67.33
2023-05-16T05:06:53.426Z,59.65
2023-05-16T05:16:59.270Z,51.28
2023-05-16T05:27:05.153Z,45.75
2023-05-16T05:37:09.401Z,41.60
2023-05-16T05:47:15.694Z,42.16
2023-05-16T05:57:22.167Z,46.15
2023-05-16T06:07:27.777Z,46.55
2023-05-16T06:17:33.657Z,46.46
2023-05-16T06:27:39.538Z,48.05
2023-05-16T06:37:45.359Z,50.31
2023-05-16T06:47:51.126Z,52.82
2023-05-16T06:57:57.852Z,52.77
2023-05-16T07:08:05.642Z,42.71
2023-05-16T07:18:13.471Z,36.53
2023-05-16T07:28:19.140Z,33.41
2023-05-16T07:38:24.994Z,30.45
2023-05-16T07:48:30.852Z,31.12
2023-05-16T07:58:36.968Z,32.17
2023-05-16T08:08:42.793Z,33.85
2023-05-16T08:18:48.614Z,35.96
2023-05-16T08:28:54.397Z,38.19
2023-05-16T08:39:02.207Z,39.56
2023-05-16T08:49:09.687Z,41.37
2023-05-16T08:59:15.775Z,42.59
2023-05-16T09:09:21.553Z,43.22
2023-05-16T09:19:27.497Z,43.24
2023-05-16T09:29:36.852Z,43.07
2023-05-16T09:39:48.936Z,43.68
2023-05-16T09:49:56.134Z,43.21
2023-05-16T10:00:05.636Z,43.30
2023-05-16T10:10:14.105Z,42.80
2023-05-16T10:20:21.595Z,42.16
2023-05-16T10:30:27.064Z,41.33
2023-05-16T10:40:33.715Z,40.85
2023-05-16T10:50:41.462Z,41.42
2023-05-16T11:00:48.585Z,41.55
2023-05-16T11:11:31.660Z,41.14
2023-05-16T11:22:07.699Z,41.10
2023-05-16T11:32:13.421Z,41.72
2023-05-16T11:42:19.542Z,42.84
2023-05-16T11:52:26.345Z,43.23
2023-05-16T12:02:33.228Z,43.36
2023-05-16T12:12:41.272Z,43.67
2023-05-16T12:22:48.259Z,43.72
2023-05-16T12:32:58.942Z,43.54
2023-05-16T12:43:04.741Z,42.32
2023-05-16T12:53:14.492Z,41.95
2023-05-16T13:03:21.819Z,41.79
2023-05-16T13:13:36.092Z,41.70
2023-05-16T13:23:42.504Z,41.40
2023-05-16T13:33:48.197Z,41.40
2023-05-16T13:43:53.848Z,41.42
2023-05-16T13:53:59.780Z,41.36
2023-05-16T14:04:06.002Z,41.52
2023-05-16T14:14:12.077Z,41.86
2023-05-16T14:24:17.841Z,42.27
2023-05-16T14:34:24.060Z,41.95
2023-05-16T14:44:29.870Z,42.60
2023-05-16T14:54:36.885Z,43.23
2023-05-16T15:04:42.621Z,43.57
2023-05-16T15:14:48.390Z,43.93
2023-05-16T15:24:54.037Z,44.41
2023-05-16T15:34:59.856Z,45.39
2023-05-16T15:45:06.466Z,46.01
2023-05-16T15:55:13.056Z,46.53
2023-05-16T16:05:19.163Z,47.02
2023-05-16T16:15:24.945Z,48.09
2023-05-16T16:25:30.910Z,48.63
2023-05-16T16:35:37.063Z,49.13
2023-05-16T16:45:42.920Z,49.32
2023-05-16T16:55:48.656Z,50.01
2023-05-16T17:05:54.368Z,50.44
2023-05-16T17:16:00.133Z,51.20
2023-05-16T17:26:05.792Z,51.91
2023-05-16T17:36:11.782Z,52.42
2023-05-16T17:46:17.468Z,52.83
2023-05-16T17:56:23.324Z,53.17
2023-05-16T18:06:30.158Z,53.60
2023-05-16T18:16:36.268Z,54.23
2023-05-16T18:26:44.455Z,54.82
2023-05-16T18:36:50.638Z,55.35
2023-05-16T18:46:57.595Z,56.00
2023-05-16T18:57:03.637Z,56.84
2023-05-16T19:07:09.413Z,58.40
2023-05-16T19:17:15.186Z,59.97
2023-05-16T19:27:21.032Z,63.14
2023-05-16T19:37:27.059Z,64.74
2023-05-16T19:47:33.000Z,66.65
2023-05-16T19:57:38.991Z,68.88
2023-05-16T20:07:44.751Z,71.15
2023-05-16T20:17:50.694Z,72.75
2023-05-16T20:27:56.673Z,74.27
2023-05-16T20:38:02.710Z,75.64
2023-05-16T20:48:08.914Z,77.09
2023-05-16T20:58:15.593Z,78.49
2023-05-16T21:08:21.320Z,79.51
2023-05-16T21:18:27.392Z,80.71
2023-05-16T21:28:39.548Z,81.88
2023-05-16T21:38:48.673Z,82.68
2023-05-16T21:48:54.424Z,83.56
2023-05-16T21:59:01.176Z,84.24
2023-05-16T22:09:07.239Z,85.29
2023-05-16T22:19:13.375Z,86.06
2023-05-16T22:29:19.207Z,86.66
2023-05-16T22:39:25.097Z,87.15
2023-05-16T22:49:30.908Z,88.00
2023-05-16T22:59:36.841Z,88.93
2023-05-16T23:09:42.603Z,89.88
2023-05-16T23:19:48.372Z,90.70
2023-05-16T23:29:54.374Z,91.51
2023-05-16T23:40:00.165Z,92.66
2023-05-16T23:50:07.145Z,93.10
